Ternholm — OWIM2 — position and weather

sailwx.info

Track history (hours):
 
Tides and Currents Weather Stations Pressure Air Temp Water Temp Dewpoint Dewpoint Depression Visibility Wind Speed Wind Dir Waves Ship Positions

Ternholm

Last reported at 2016-Dec-09 11:21 UTC. Time now 2016-Dec-10 06:59 UTC.
Position N 60°13' E 025°36'.

Length 141 m; draft 6.6 m.

Type: Tanker. MMSI: 219076000.

Date/timePositionNaut miles runAvg speedWind from/ knotsBaromVisibWave heightAir tempDewpointWater temp
2016-Dec-09 11:21N 60°13' E 025°36'1110.0
2016-Dec-09 10:13N 60°02' E 025°33'5 0.4
2016-Dec-08 22:34N 59°57' E 025°28'10 9.0
2016-Dec-08 21:26N 59°50' E 025°14'12 9.5
2016-Dec-08 20:10N 59°47' E 024°51'25 6.6
2016-Dec-08 16:22N 59°58' E 024°06'3 0.1
2016-Dec-07 04:06N 59°60' E 024°00'24 8.2
2016-Dec-07 01:13N 59°38' E 023°42'1011.6
2016-Dec-07 00:20N 59°34' E 023°23'34910.6
2016-Dec-05 15:33N 55°38' E 015°25'1111.1
2016-Dec-05 14:33N 55°33' E 015°08'1111.3
2016-Dec-05 13:33N 55°27' E 014°50'1212.5
2016-Dec-05 12:34N 55°19' E 014°33'1111.2
2016-Dec-05 11:33N 55°10' E 014°21'1111.2
2016-Dec-05 10:33N 55°02' E 014°09'1111.1
2016-Dec-05 09:33N 54°58' E 013°51'3511.4
2016-Dec-05 06:31N 54°46' E 012°54'3610.7
2016-Dec-05 03:08N 54°25' E 012°04'1012.1
2016-Dec-05 02:20N 54°25' E 011°47'911.4
2016-Dec-05 01:34N 54°29' E 011°34'1212.0
2016-Dec-05 00:33N 54°34' E 011°15'1211.6
2016-Dec-04 23:33N 54°40' E 010°58'10 9.7
2016-Dec-04 22:33N 54°49' E 010°52'1010.1
2016-Dec-04 21:33N 54°58' E 010°59'1110.6
2016-Dec-04 20:33N 55°08' E 011°02'57 9.4
2016-Dec-04 14:32N 56°05' E 011°07'1010.3
2016-Dec-04 13:33N 56°13' E 011°19'4310.2
2016-Dec-04 09:18N 56°53' E 011°46'911.6
2016-Dec-04 08:33N 57°02' E 011°41'1111.2
2016-Dec-04 07:33N 57°12' E 011°33'1110.8
2016-Dec-04 06:33N 57°23' E 011°29'1010.4
2016-Dec-04 05:33N 57°32' E 011°36'10 9.9
2016-Dec-04 04:33N 57°40' E 011°47'3 3.2
2016-Dec-04 03:33N 57°41' E 011°53'0 0.0
2016-Dec-04 02:32N 57°41' E 011°53'0 0.0
2016-Dec-04 01:32N 57°41' E 011°53'0 0.0
2016-Dec-04 00:32N 57°41' E 011°53'0 0.0
2016-Dec-03 23:32N 57°41' E 011°53'0 0.0
2016-Dec-03 22:32N 57°41' E 011°53'0 0.0
2016-Dec-03 21:32N 57°41' E 011°53'0 0.0
2016-Dec-03 20:32N 57°41' E 011°53'0 0.0
2016-Dec-03 19:32N 57°41' E 011°53'0 0.0
2016-Dec-03 18:32N 57°41' E 011°53'0 0.0
2016-Dec-03 17:32N 57°41' E 011°53'0 0.0
2016-Dec-03 16:32N 57°41' E 011°53'0 0.0
2016-Dec-03 15:32N 57°41' E 011°53'0 0.0
2016-Dec-03 14:32N 57°41' E 011°53'0 0.0
2016-Dec-03 13:32N 57°41' E 011°53'0 0.0
2016-Dec-03 12:32N 57°41' E 011°53'0 0.0
2016-Dec-03 11:32N 57°41' E 011°53'0 0.0
2016-Dec-03 10:33N 57°41' E 011°53'0 0.2
2016-Dec-03 09:31N 57°41' E 011°52'0 0.0
2016-Dec-03 08:31N 57°41' E 011°52'0 0.0
2016-Dec-03 07:31N 57°41' E 011°52'0 0.0
2016-Dec-03 06:31N 57°41' E 011°52'0 0.0
2016-Dec-03 05:31N 57°41' E 011°52'0 0.0
2016-Dec-03 04:31N 57°41' E 011°52'0 0.0
2016-Dec-03 03:31N 57°41' E 011°52'0 0.0
2016-Dec-03 02:31N 57°41' E 011°52'0 0.0
2016-Dec-03 01:31N 57°41' E 011°52'0 0.0
2016-Dec-03 00:31N 57°41' E 011°52'0 0.0
2016-Dec-02 23:31N 57°41' E 011°52'0 0.0
2016-Dec-02 22:31N 57°41' E 011°52'0 0.0
2016-Dec-02 21:31N 57°41' E 011°52'0 0.0
2016-Dec-02 20:31N 57°41' E 011°52'0 0.0
2016-Dec-02 19:31N 57°41' E 011°52'0 0.0
2016-Dec-02 18:31N 57°41' E 011°52'0 0.0
2016-Dec-02 17:31N 57°41' E 011°52'0 0.0
2016-Dec-02 16:31N 57°41' E 011°52'0 0.0
2016-Dec-02 15:28N 57°41' E 011°52'0 0.0
2016-Dec-02 14:31N 57°41' E 011°52'0 0.0
2016-Dec-02 13:31N 57°41' E 011°52'0 0.0
2016-Dec-02 12:31N 57°41' E 011°52'0 0.0
2016-Dec-02 11:31N 57°41' E 011°52'0 0.0
2016-Dec-02 10:31N 57°41' E 011°52'0 0.0
2016-Dec-02 09:31N 57°41' E 011°52'0 0.0
2016-Dec-02 08:31N 57°41' E 011°52'0 0.0
2016-Dec-02 07:34N 57°41' E 011°52'0 0.0
2016-Dec-02 06:33N 57°41' E 011°52'0 0.0
2016-Dec-02 05:33N 57°41' E 011°52'0 0.0
2016-Dec-02 04:33N 57°41' E 011°52'0 0.0
2016-Dec-02 03:33N 57°41' E 011°52'0 0.0
2016-Dec-02 02:33N 57°41' E 011°52'0 0.0
2016-Dec-02 01:33N 57°41' E 011°52'0 0.0
2016-Dec-02 00:33N 57°41' E 011°52'0 0.0
2016-Dec-01 23:33N 57°41' E 011°52'0 0.0
2016-Dec-01 22:33N 57°41' E 011°52'0 0.0
2016-Dec-01 21:33N 57°41' E 011°52'0 0.0
2016-Dec-01 20:33N 57°41' E 011°52'0 0.0
2016-Dec-01 19:33N 57°41' E 011°52'0 0.0
2016-Dec-01 18:33N 57°41' E 011°52'6 6.1
2016-Dec-01 17:33N 57°39' E 011°42'5 4.8
2016-Dec-01 16:30N 57°34' E 011°40'0 0.0
2016-Dec-01 15:33N 57°34' E 011°40'0 0.0
2016-Dec-01 14:33N 57°34' E 011°40'0 0.0
2016-Dec-01 13:33N 57°34' E 011°40'0 0.0
2016-Dec-01 12:33N 57°34' E 011°40'0 0.0
2016-Dec-01 11:30N 57°34' E 011°40'0 0.0
2016-Dec-01 10:33N 57°34' E 011°40'0 0.0
2016-Dec-01 09:33N 57°34' E 011°40'3 2.8
2016-Dec-01 08:33N 57°31' E 011°37'1010.5
2016-Dec-01 07:34N 57°21' E 011°36'1010.1
2016-Dec-01 06:33N 57°11' E 011°39'  
Track history (hours):
 
Tides and Currents Weather Stations Pressure Air Temp Water Temp Dewpoint Dewpoint Depression Visibility Wind Speed Wind Dir Waves Ship Positions

Ternholm

Last reported at 2016-Dec-09 11:21 UTC. Time now 2016-Dec-10 06:59 UTC.
Position N 60°13' E 025°36'.

Length 141 m; draft 6.6 m.

Type: Tanker. MMSI: 219076000.

Date/timePositionNaut miles runAvg speedWind from/ knotsBaromVisibWave heightAir tempDewpointWater temp
2016-Dec-09 11:21N 60°13' E 025°36'1110.0
2016-Dec-09 10:13N 60°02' E 025°33'5 0.4
2016-Dec-08 22:34N 59°57' E 025°28'10 9.0
2016-Dec-08 21:26N 59°50' E 025°14'12 9.5
2016-Dec-08 20:10N 59°47' E 024°51'25 6.6
2016-Dec-08 16:22N 59°58' E 024°06'3 0.1
2016-Dec-07 04:06N 59°60' E 024°00'24 8.2
2016-Dec-07 01:13N 59°38' E 023°42'1011.6
2016-Dec-07 00:20N 59°34' E 023°23'34910.6
2016-Dec-05 15:33N 55°38' E 015°25'1111.1
2016-Dec-05 14:33N 55°33' E 015°08'1111.3
2016-Dec-05 13:33N 55°27' E 014°50'1212.5
2016-Dec-05 12:34N 55°19' E 014°33'1111.2
2016-Dec-05 11:33N 55°10' E 014°21'1111.2
2016-Dec-05 10:33N 55°02' E 014°09'1111.1
2016-Dec-05 09:33N 54°58' E 013°51'3511.4
2016-Dec-05 06:31N 54°46' E 012°54'3610.7
2016-Dec-05 03:08N 54°25' E 012°04'1012.1
2016-Dec-05 02:20N 54°25' E 011°47'911.4
2016-Dec-05 01:34N 54°29' E 011°34'1212.0
2016-Dec-05 00:33N 54°34' E 011°15'1211.6
2016-Dec-04 23:33N 54°40' E 010°58'10 9.7
2016-Dec-04 22:33N 54°49' E 010°52'1010.1
2016-Dec-04 21:33N 54°58' E 010°59'1110.6
2016-Dec-04 20:33N 55°08' E 011°02'57 9.4
2016-Dec-04 14:32N 56°05' E 011°07'1010.3
2016-Dec-04 13:33N 56°13' E 011°19'4310.2
2016-Dec-04 09:18N 56°53' E 011°46'911.6
2016-Dec-04 08:33N 57°02' E 011°41'1111.2
2016-Dec-04 07:33N 57°12' E 011°33'1110.8
2016-Dec-04 06:33N 57°23' E 011°29'1010.4
2016-Dec-04 05:33N 57°32' E 011°36'10 9.9
2016-Dec-04 04:33N 57°40' E 011°47'3 3.2
2016-Dec-04 03:33N 57°41' E 011°53'0 0.0
2016-Dec-04 02:32N 57°41' E 011°53'0 0.0
2016-Dec-04 01:32N 57°41' E 011°53'0 0.0
2016-Dec-04 00:32N 57°41' E 011°53'0 0.0
2016-Dec-03 23:32N 57°41' E 011°53'0 0.0
2016-Dec-03 22:32N 57°41' E 011°53'0 0.0
2016-Dec-03 21:32N 57°41' E 011°53'0 0.0
2016-Dec-03 20:32N 57°41' E 011°53'0 0.0
2016-Dec-03 19:32N 57°41' E 011°53'0 0.0
2016-Dec-03 18:32N 57°41' E 011°53'0 0.0
2016-Dec-03 17:32N 57°41' E 011°53'0 0.0
2016-Dec-03 16:32N 57°41' E 011°53'0 0.0
2016-Dec-03 15:32N 57°41' E 011°53'0 0.0
2016-Dec-03 14:32N 57°41' E 011°53'0 0.0
2016-Dec-03 13:32N 57°41' E 011°53'0 0.0
2016-Dec-03 12:32N 57°41' E 011°53'0 0.0
2016-Dec-03 11:32N 57°41' E 011°53'0 0.0
2016-Dec-03 10:33N 57°41' E 011°53'0 0.2
2016-Dec-03 09:31N 57°41' E 011°52'0 0.0
2016-Dec-03 08:31N 57°41' E 011°52'0 0.0
2016-Dec-03 07:31N 57°41' E 011°52'0 0.0
2016-Dec-03 06:31N 57°41' E 011°52'0 0.0
2016-Dec-03 05:31N 57°41' E 011°52'0 0.0
2016-Dec-03 04:31N 57°41' E 011°52'0 0.0
2016-Dec-03 03:31N 57°41' E 011°52'0 0.0
2016-Dec-03 02:31N 57°41' E 011°52'0 0.0
2016-Dec-03 01:31N 57°41' E 011°52'0 0.0
2016-Dec-03 00:31N 57°41' E 011°52'0 0.0
2016-Dec-02 23:31N 57°41' E 011°52'0 0.0
2016-Dec-02 22:31N 57°41' E 011°52'0 0.0
2016-Dec-02 21:31N 57°41' E 011°52'0 0.0
2016-Dec-02 20:31N 57°41' E 011°52'0 0.0
2016-Dec-02 19:31N 57°41' E 011°52'0 0.0
2016-Dec-02 18:31N 57°41' E 011°52'0 0.0
2016-Dec-02 17:31N 57°41' E 011°52'0 0.0
2016-Dec-02 16:31N 57°41' E 011°52'0 0.0
2016-Dec-02 15:28N 57°41' E 011°52'0 0.0
2016-Dec-02 14:31N 57°41' E 011°52'0 0.0
2016-Dec-02 13:31N 57°41' E 011°52'0 0.0
2016-Dec-02 12:31N 57°41' E 011°52'0 0.0
2016-Dec-02 11:31N 57°41' E 011°52'0 0.0
2016-Dec-02 10:31N 57°41' E 011°52'0 0.0
2016-Dec-02 09:31N 57°41' E 011°52'0 0.0
2016-Dec-02 08:31N 57°41' E 011°52'0 0.0
2016-Dec-02 07:34N 57°41' E 011°52'0 0.0
2016-Dec-02 06:33N 57°41' E 011°52'0 0.0
2016-Dec-02 05:33N 57°41' E 011°52'0 0.0
2016-Dec-02 04:33N 57°41' E 011°52'0 0.0
2016-Dec-02 03:33N 57°41' E 011°52'0 0.0
2016-Dec-02 02:33N 57°41' E 011°52'0 0.0
2016-Dec-02 01:33N 57°41' E 011°52'0 0.0
2016-Dec-02 00:33N 57°41' E 011°52'0 0.0
2016-Dec-01 23:33N 57°41' E 011°52'0 0.0
2016-Dec-01 22:33N 57°41' E 011°52'0 0.0
2016-Dec-01 21:33N 57°41' E 011°52'0 0.0
2016-Dec-01 20:33N 57°41' E 011°52'0 0.0
2016-Dec-01 19:33N 57°41' E 011°52'0 0.0
2016-Dec-01 18:33N 57°41' E 011°52'6 6.1
2016-Dec-01 17:33N 57°39' E 011°42'5 4.8
2016-Dec-01 16:30N 57°34' E 011°40'0 0.0
2016-Dec-01 15:33N 57°34' E 011°40'0 0.0
2016-Dec-01 14:33N 57°34' E 011°40'0 0.0
2016-Dec-01 13:33N 57°34' E 011°40'0 0.0
2016-Dec-01 12:33N 57°34' E 011°40'0 0.0
2016-Dec-01 11:30N 57°34' E 011°40'0 0.0
2016-Dec-01 10:33N 57°34' E 011°40'0 0.0
2016-Dec-01 09:33N 57°34' E 011°40'3 2.8
2016-Dec-01 08:33N 57°31' E 011°37'1010.5
2016-Dec-01 07:34N 57°21' E 011°36'1010.1
2016-Dec-01 06:33N 57°11' E 011°39'  

Dump ship's entire track history